createdAt,value
2022-10-04T00:02:28.110Z,100.00
2022-10-04T00:05:03.350Z,100.00
2022-10-04T00:07:35.586Z,100.00
2022-10-04T00:10:08.211Z,100.00
2022-10-04T00:12:39.985Z,100.00
2022-10-04T00:15:21.588Z,100.00
2022-10-04T00:18:06.139Z,100.00
2022-10-04T00:21:04.443Z,100.00
2022-10-04T00:23:47.270Z,100.00
2022-10-04T00:26:57.970Z,100.00
2022-10-04T00:29:32.804Z,100.00
2022-10-04T00:32:28.580Z,100.00
2022-10-04T00:34:57.846Z,100.00
2022-10-04T00:37:27.780Z,100.00
2022-10-04T00:40:12.021Z,100.00
2022-10-04T00:42:58.862Z,100.00
2022-10-04T00:45:33.762Z,100.00
2022-10-04T00:48:31.902Z,100.00
2022-10-04T00:51:06.115Z,100.00
2022-10-04T00:53:42.983Z,100.00
2022-10-04T00:56:15.615Z,100.00
2022-10-04T00:58:52.012Z,100.00
2022-10-04T01:01:25.225Z,100.00
2022-10-04T01:04:02.582Z,100.00
2022-10-04T01:06:35.007Z,100.00
2022-10-04T01:09:12.818Z,100.00
2022-10-04T01:11:46.204Z,100.00
2022-10-04T01:14:21.746Z,100.00
2022-10-04T01:16:49.889Z,100.00
2022-10-04T01:19:31.644Z,100.00
2022-10-04T01:22:10.869Z,100.00
2022-10-04T01:24:43.825Z,100.00
2022-10-04T01:27:35.210Z,100.00
2022-10-04T01:30:07.656Z,100.00
2022-10-04T01:32:40.551Z,100.00
2022-10-04T01:35:09.795Z,100.00
2022-10-04T01:37:39.456Z,100.00
2022-10-04T01:40:11.192Z,100.00
2022-10-04T01:42:46.474Z,100.00
2022-10-04T01:45:22.666Z,100.00
2022-10-04T01:47:55.368Z,100.00
2022-10-04T01:50:30.324Z,100.00
2022-10-04T01:53:07.888Z,100.00
2022-10-04T01:55:41.300Z,100.00
2022-10-04T01:58:12.338Z,100.00
2022-10-04T02:00:44.494Z,100.00
2022-10-04T02:03:17.920Z,100.00
2022-10-04T02:05:52.727Z,100.00
2022-10-04T02:08:27.750Z,100.00
2022-10-04T02:10:58.104Z,100.00
2022-10-04T02:13:30.115Z,100.00
2022-10-04T02:15:59.543Z,100.00
2022-10-04T02:18:29.943Z,100.00
2022-10-04T02:21:01.093Z,100.00
2022-10-04T02:23:30.291Z,100.00
2022-10-04T02:25:59.763Z,100.00
2022-10-04T02:28:27.917Z,100.00
2022-10-04T02:31:14.031Z,100.00
2022-10-04T02:33:43.838Z,100.00
2022-10-04T02:36:13.273Z,100.00
2022-10-04T02:38:45.204Z,100.00
2022-10-04T02:41:22.494Z,100.00
2022-10-04T02:43:56.265Z,100.00
2022-10-04T02:46:29.433Z,100.00
2022-10-04T02:49:00.329Z,100.00
2022-10-04T02:51:35.298Z,100.00
2022-10-04T02:54:07.244Z,100.00
2022-10-04T02:56:38.407Z,100.00
2022-10-04T02:59:08.033Z,100.00
2022-10-04T03:01:48.762Z,100.00
2022-10-04T03:04:21.136Z,100.00
2022-10-04T03:06:49.316Z,100.00
2022-10-04T03:09:18.931Z,100.00
2022-10-04T03:11:53.006Z,100.00
2022-10-04T03:14:23.504Z,100.00
2022-10-04T03:16:54.216Z,100.00
2022-10-04T03:19:25.086Z,100.00
2022-10-04T03:21:57.178Z,100.00
2022-10-04T03:24:35.758Z,100.00
2022-10-04T03:27:09.336Z,100.00
2022-10-04T03:29:44.328Z,100.00
2022-10-04T03:32:15.960Z,100.00
2022-10-04T03:34:51.875Z,100.00
2022-10-04T03:37:21.635Z,100.00
2022-10-04T03:39:53.391Z,100.00
2022-10-04T03:42:25.647Z,100.00
2022-10-04T03:44:56.884Z,100.00
2022-10-04T03:47:28.652Z,100.00
2022-10-04T03:49:59.939Z,100.00
2022-10-04T03:52:35.604Z,100.00
2022-10-04T03:55:08.161Z,100.00
2022-10-04T03:57:39.493Z,100.00
2022-10-04T04:00:08.294Z,100.00
2022-10-04T04:02:46.052Z,100.00
2022-10-04T04:05:24.225Z,100.00
2022-10-04T04:08:01.259Z,100.00
2022-10-04T04:10:32.788Z,100.00
2022-10-04T04:13:14.793Z,100.00
2022-10-04T04:15:45.618Z,100.00
2022-10-04T04:18:18.413Z,100.00
2022-10-04T04:20:47.857Z,100.00
2022-10-04T04:23:24.518Z,100.00
2022-10-04T04:25:56.800Z,100.00
2022-10-04T04:28:34.149Z,100.00
2022-10-04T04:31:06.862Z,100.00
2022-10-04T04:33:44.084Z,100.00
2022-10-04T04:36:15.471Z,100.00
2022-10-04T04:38:57.713Z,100.00
2022-10-04T04:41:28.155Z,100.00
2022-10-04T04:43:57.504Z,100.00
2022-10-04T04:46:30.197Z,100.00
2022-10-04T04:49:02.662Z,100.00
2022-10-04T04:51:33.430Z,100.00
2022-10-04T04:54:07.504Z,100.00
2022-10-04T04:56:36.054Z,100.00
2022-10-04T04:59:08.863Z,100.00
2022-10-04T05:01:43.291Z,100.00
2022-10-04T05:04:21.301Z,100.00
2022-10-04T05:06:59.904Z,100.00
2022-10-04T05:09:31.540Z,100.00
2022-10-04T05:12:07.855Z,100.00
2022-10-04T05:14:40.247Z,100.00
2022-10-04T05:17:09.152Z,100.00
2022-10-04T05:19:41.057Z,100.00
2022-10-04T05:22:11.647Z,100.00
2022-10-04T05:24:43.127Z,100.00
2022-10-04T05:27:17.925Z,100.00
2022-10-04T05:29:58.976Z,100.00
2022-10-04T05:32:37.553Z,100.00
2022-10-04T05:35:16.673Z,100.00
2022-10-04T05:38:04.479Z,100.00
2022-10-04T05:40:41.711Z,100.00
2022-10-04T05:43:26.798Z,100.00
2022-10-04T05:46:30.448Z,100.00
2022-10-04T05:49:06.272Z,100.00
2022-10-04T05:51:38.241Z,100.00
2022-10-04T05:54:09.167Z,100.00
2022-10-04T05:57:12.974Z,100.00
2022-10-04T05:59:59.442Z,100.00
2022-10-04T06:02:48.440Z,100.00
2022-10-04T06:05:25.669Z,100.00
2022-10-04T06:08:03.361Z,100.00
2022-10-04T06:10:50.306Z,100.00
2022-10-04T06:13:39.883Z,100.00
2022-10-04T06:16:21.202Z,100.00
2022-10-04T06:19:26.639Z,100.00
2022-10-04T06:22:27.767Z,100.00
2022-10-04T06:25:26.305Z,100.00
2022-10-04T06:28:05.830Z,100.00
2022-10-04T06:30:52.484Z,100.00
2022-10-04T06:33:35.372Z,100.00
2022-10-04T06:36:38.752Z,100.00
2022-10-04T06:39:29.441Z,100.00
2022-10-04T06:42:17.402Z,100.00
2022-10-04T06:45:08.523Z,100.00
2022-10-04T06:48:03.760Z,100.00
2022-10-04T06:50:40.118Z,100.00
2022-10-04T06:53:25.795Z,100.00
2022-10-04T06:56:35.083Z,100.00
2022-10-04T06:59:29.830Z,100.00
2022-10-04T07:02:00.187Z,100.00
2022-10-04T07:04:56.149Z,100.00
2022-10-04T07:07:36.462Z,100.00
2022-10-04T07:10:41.949Z,100.00
2022-10-04T07:13:20.726Z,100.00
2022-10-04T07:15:56.852Z,100.00
2022-10-04T07:18:29.114Z,100.00
2022-10-04T07:21:04.811Z,100.00
2022-10-04T07:23:39.094Z,100.00
2022-10-04T07:26:20.986Z,100.00
2022-10-04T07:29:08.568Z,100.00
2022-10-04T07:31:38.294Z,100.00
2022-10-04T07:34:12.622Z,100.00
2022-10-04T07:36:47.086Z,100.00
2022-10-04T07:39:17.737Z,100.00
2022-10-04T07:41:53.046Z,100.00
2022-10-04T07:44:31.390Z,100.00
2022-10-04T07:47:03.943Z,100.00
2022-10-04T07:49:38.823Z,100.00
2022-10-04T07:52:30.422Z,100.00
2022-10-04T07:55:08.357Z,100.00
2022-10-04T07:57:49.089Z,100.00
2022-10-04T08:00:21.965Z,100.00
2022-10-04T08:03:04.764Z,100.00
2022-10-04T08:05:38.603Z,100.00
2022-10-04T08:08:27.067Z,100.00
2022-10-04T08:11:09.327Z,100.00
2022-10-04T08:13:49.505Z,100.00
2022-10-04T08:16:31.209Z,100.00
2022-10-04T08:19:20.164Z,100.00
2022-10-04T08:21:58.717Z,100.00
2022-10-04T08:24:35.231Z,100.00
2022-10-04T08:27:24.560Z,100.00
2022-10-04T08:30:12.299Z,100.00
2022-10-04T08:32:56.510Z,100.00
2022-10-04T08:35:37.703Z,100.00
2022-10-04T08:38:26.392Z,100.00
2022-10-04T08:41:24.264Z,100.00
2022-10-04T08:44:25.617Z,100.00
2022-10-04T08:47:24.582Z,100.00
2022-10-04T08:50:14.279Z,100.00
2022-10-04T08:53:28.403Z,100.00
2022-10-04T08:56:11.454Z,100.00
2022-10-04T08:59:19.589Z,100.00
2022-10-04T09:02:01.455Z,100.00
2022-10-04T09:05:03.496Z,100.00
2022-10-04T09:08:15.872Z,100.00
2022-10-04T09:11:05.701Z,100.00
2022-10-04T09:14:08.364Z,100.00
2022-10-04T09:16:46.777Z,100.00
2022-10-04T09:19:23.409Z,100.00
2022-10-04T09:22:16.534Z,100.00
2022-10-04T09:25:04.465Z,100.00
2022-10-04T09:27:54.959Z,100.00
2022-10-04T09:30:31.106Z,100.00
2022-10-04T09:33:39.272Z,100.00
2022-10-04T09:36:29.105Z,100.00
2022-10-04T09:39:30.703Z,100.00
2022-10-04T09:42:19.282Z,100.00
2022-10-04T09:45:07.623Z,100.00
2022-10-04T09:47:46.478Z,100.00
2022-10-04T09:50:39.923Z,100.00
2022-10-04T09:53:33.436Z,100.00
2022-10-04T09:56:36.004Z,100.00
2022-10-04T09:59:35.629Z,100.00
2022-10-04T10:02:45.211Z,100.00
2022-10-04T10:05:28.494Z,100.00
2022-10-04T10:08:08.618Z,100.00
2022-10-04T10:11:00.578Z,100.00
2022-10-04T10:13:45.104Z,100.00
2022-10-04T10:16:34.224Z,100.00
2022-10-04T10:19:25.026Z,100.00
2022-10-04T10:22:09.049Z,100.00
2022-10-04T10:25:02.632Z,100.00
2022-10-04T10:28:02.070Z,100.00
2022-10-04T10:30:48.786Z,100.00
2022-10-04T10:33:42.721Z,100.00
2022-10-04T10:36:44.305Z,100.00
2022-10-04T10:39:49.901Z,100.00
2022-10-04T10:42:40.255Z,100.00
2022-10-04T10:45:29.328Z,100.00
2022-10-04T10:48:09.337Z,100.00
2022-10-04T10:51:03.453Z,100.00
2022-10-04T10:54:09.417Z,100.00
2022-10-04T10:56:48.147Z,100.00
2022-10-04T10:59:50.680Z,100.00
2022-10-04T11:03:23.013Z,100.00
2022-10-04T11:06:14.252Z,100.00
2022-10-04T11:09:15.469Z,100.00
2022-10-04T11:12:06.856Z,100.00
2022-10-04T11:14:56.511Z,100.00
2022-10-04T11:17:59.784Z,100.00
2022-10-04T11:20:51.749Z,100.00
2022-10-04T11:23:51.955Z,100.00
2022-10-04T11:26:55.376Z,100.00
2022-10-04T11:29:39.909Z,100.00
2022-10-04T11:32:48.768Z,100.00
2022-10-04T11:35:54.734Z,100.00
2022-10-04T11:38:48.933Z,100.00
2022-10-04T11:41:29.828Z,100.00
2022-10-04T11:44:29.460Z,100.00
2022-10-04T11:47:07.930Z,100.00
2022-10-04T11:49:57.109Z,100.00
2022-10-04T11:52:54.984Z,100.00
2022-10-04T11:55:44.107Z,100.00
2022-10-04T11:58:25.452Z,100.00
2022-10-04T12:01:20.039Z,100.00
2022-10-04T12:04:14.321Z,100.00
2022-10-04T12:07:06.927Z,100.00
2022-10-04T12:09:43.193Z,100.00
2022-10-04T12:12:45.103Z,100.00
2022-10-04T12:15:45.147Z,100.00
2022-10-04T12:18:56.243Z,100.00
2022-10-04T12:21:45.002Z,100.00
2022-10-04T12:24:28.877Z,100.00
2022-10-04T12:27:18.918Z,100.00
2022-10-04T12:30:25.269Z,100.00
2022-10-04T12:33:05.777Z,100.00
2022-10-04T12:35:48.918Z,100.00
2022-10-04T12:38:45.969Z,100.00
2022-10-04T12:41:29.723Z,99.82
2022-10-04T12:44:07.899Z,100.00
2022-10-04T12:46:48.787Z,100.00
2022-10-04T12:49:29.857Z,100.00
2022-10-04T12:52:09.772Z,100.00
2022-10-04T12:54:41.130Z,100.00
2022-10-04T12:57:28.723Z,100.00
2022-10-04T13:00:06.584Z,99.88
2022-10-04T13:02:50.677Z,99.96
2022-10-04T13:05:27.393Z,100.00
2022-10-04T13:08:21.394Z,97.17
2022-10-04T13:11:07.093Z,99.13
2022-10-04T13:14:14.842Z,96.51
2022-10-04T13:19:50.566Z,95.69
2022-10-04T13:22:55.985Z,92.11
2022-10-04T13:25:42.000Z,88.67
2022-10-04T13:28:23.478Z,92.43
2022-10-04T13:31:00.721Z,92.33
2022-10-04T13:33:38.944Z,91.01
2022-10-04T13:36:12.780Z,92.40
2022-10-04T13:39:13.592Z,89.76
2022-10-04T13:42:01.554Z,97.46
2022-10-04T13:44:44.643Z,92.46
2022-10-04T13:47:34.857Z,94.01
2022-10-04T13:50:28.085Z,94.37
2022-10-04T13:53:21.336Z,91.21
2022-10-04T13:56:17.374Z,88.86
2022-10-04T13:58:49.537Z,89.58
2022-10-04T14:01:53.801Z,88.60
2022-10-04T14:04:47.979Z,85.11
2022-10-04T14:07:34.669Z,83.34
2022-10-04T14:10:19.108Z,81.28
2022-10-04T14:13:28.258Z,80.90
2022-10-04T14:16:19.188Z,80.91
2022-10-04T14:19:14.583Z,75.81
2022-10-04T14:22:13.877Z,82.25
2022-10-04T14:25:05.733Z,79.01
2022-10-04T14:27:57.487Z,69.83
2022-10-04T14:30:39.203Z,70.12
2022-10-04T14:33:38.001Z,69.44
2022-10-04T14:36:36.550Z,66.33
2022-10-04T14:39:46.150Z,67.46
2022-10-04T14:42:48.104Z,68.16
2022-10-04T14:45:45.855Z,70.22
2022-10-04T14:48:37.050Z,69.26
2022-10-04T14:51:36.389Z,65.50
2022-10-04T14:54:10.922Z,64.25
2022-10-04T14:57:01.823Z,65.64
2022-10-04T15:00:04.572Z,66.98
2022-10-04T15:03:14.536Z,66.97
2022-10-04T15:06:00.137Z,64.55
2022-10-04T15:08:47.646Z,61.45
2022-10-04T15:11:21.076Z,59.50
2022-10-04T15:13:55.564Z,58.27
2022-10-04T15:16:37.492Z,55.93
2022-10-04T15:19:12.687Z,56.95
2022-10-04T15:21:47.592Z,58.41
2022-10-04T15:24:27.955Z,59.48
2022-10-04T15:27:24.304Z,60.51
2022-10-04T15:30:02.209Z,63.98
2022-10-04T15:32:37.491Z,64.85
2022-10-04T15:35:21.672Z,61.19
2022-10-04T15:37:57.112Z,60.72
2022-10-04T15:40:38.481Z,60.34
2022-10-04T15:43:31.479Z,58.09
2022-10-04T15:46:12.753Z,56.21
2022-10-04T15:48:55.224Z,56.76
2022-10-04T15:51:42.556Z,57.75
2022-10-04T15:54:36.968Z,57.74
2022-10-04T15:57:22.323Z,56.98
2022-10-04T15:59:55.688Z,60.38
2022-10-04T16:02:44.979Z,60.22
2022-10-04T16:05:22.469Z,60.58
2022-10-04T16:08:07.093Z,66.09
2022-10-04T16:11:01.990Z,67.94
2022-10-04T16:13:46.589Z,69.38
2022-10-04T16:16:36.919Z,69.67
2022-10-04T16:19:18.977Z,71.80
2022-10-04T16:21:53.794Z,71.93
2022-10-04T16:24:41.783Z,73.08
2022-10-04T16:27:26.886Z,70.60
2022-10-04T16:33:26.389Z,70.75
2022-10-04T16:36:10.053Z,71.38
2022-10-04T16:39:07.658Z,73.16
2022-10-04T16:41:44.509Z,72.63
2022-10-04T16:44:30.394Z,73.34
2022-10-04T16:47:03.520Z,73.40
2022-10-04T16:49:41.213Z,73.44
2022-10-04T16:52:36.788Z,73.83
2022-10-04T16:55:44.824Z,75.35
2022-10-04T16:58:55.675Z,79.64
2022-10-04T17:01:55.203Z,83.23
2022-10-04T17:04:55.673Z,90.22
2022-10-04T17:07:36.660Z,91.36
2022-10-04T17:10:21.302Z,97.76
2022-10-04T17:12:57.345Z,100.00
2022-10-04T17:15:39.198Z,100.00
2022-10-04T17:18:28.320Z,100.00
2022-10-04T17:20:58.272Z,100.00
2022-10-04T17:23:58.189Z,100.00
2022-10-04T17:26:52.922Z,100.00
2022-10-04T17:29:35.428Z,100.00
2022-10-04T17:32:16.956Z,100.00
2022-10-04T17:34:58.663Z,100.00
2022-10-04T17:37:40.650Z,100.00
2022-10-04T17:40:29.286Z,100.00
2022-10-04T17:43:06.803Z,100.00
2022-10-04T17:46:08.467Z,100.00
2022-10-04T17:49:03.210Z,100.00
2022-10-04T17:52:00.218Z,100.00
2022-10-04T17:54:49.889Z,100.00
2022-10-04T17:57:27.181Z,100.00
2022-10-04T18:00:10.307Z,100.00
2022-10-04T18:03:03.710Z,100.00
2022-10-04T18:05:37.475Z,100.00
2022-10-04T18:08:15.221Z,100.00
2022-10-04T18:10:54.834Z,100.00
2022-10-04T18:13:30.679Z,100.00
2022-10-04T18:16:08.848Z,100.00
2022-10-04T18:18:40.487Z,100.00
2022-10-04T18:21:27.327Z,100.00
2022-10-04T18:24:03.284Z,100.00
2022-10-04T18:26:34.708Z,100.00
2022-10-04T18:29:03.829Z,100.00
2022-10-04T18:31:36.100Z,100.00
2022-10-04T18:34:18.193Z,100.00
2022-10-04T18:36:59.133Z,100.00
2022-10-04T18:39:28.935Z,100.00
2022-10-04T18:42:08.843Z,100.00
2022-10-04T18:44:46.949Z,100.00
2022-10-04T18:47:21.266Z,100.00
2022-10-04T18:49:52.674Z,100.00
2022-10-04T18:52:34.918Z,100.00
2022-10-04T18:55:19.509Z,100.00
2022-10-04T18:58:09.923Z,100.00
2022-10-04T19:01:02.481Z,100.00
2022-10-04T19:03:39.796Z,100.00
2022-10-04T19:06:16.956Z,100.00
2022-10-04T19:08:54.832Z,100.00
2022-10-04T19:11:33.948Z,100.00
2022-10-04T19:14:09.425Z,100.00
2022-10-04T19:16:44.588Z,100.00
2022-10-04T19:19:41.044Z,100.00
2022-10-04T19:22:30.900Z,100.00
2022-10-04T19:25:30.424Z,100.00
2022-10-04T19:28:05.882Z,100.00
2022-10-04T19:30:48.990Z,100.00
2022-10-04T19:33:20.907Z,100.00
2022-10-04T19:36:07.065Z,100.00
2022-10-04T19:38:54.130Z,100.00
2022-10-04T19:41:37.830Z,100.00
2022-10-04T19:44:23.390Z,100.00
2022-10-04T19:47:03.651Z,100.00
2022-10-04T19:49:44.279Z,100.00
2022-10-04T19:52:23.854Z,100.00
2022-10-04T19:54:58.753Z,100.00
2022-10-04T19:57:39.486Z,100.00
2022-10-04T20:00:13.726Z,100.00
2022-10-04T20:02:48.233Z,100.00
2022-10-04T20:05:20.247Z,100.00
2022-10-04T20:07:52.677Z,100.00
2022-10-04T20:10:31.367Z,100.00
2022-10-04T20:13:16.883Z,100.00
2022-10-04T20:15:48.476Z,100.00
2022-10-04T20:18:52.383Z,100.00
2022-10-04T20:21:28.829Z,100.00
2022-10-04T20:24:01.573Z,100.00
2022-10-04T20:26:54.467Z,100.00
2022-10-04T20:30:05.455Z,100.00
2022-10-04T20:32:57.615Z,100.00
2022-10-04T20:36:09.294Z,100.00
2022-10-04T20:39:01.589Z,100.00
2022-10-04T20:42:22.326Z,100.00
2022-10-04T20:44:56.355Z,100.00
2022-10-04T20:47:47.899Z,100.00
2022-10-04T20:50:21.811Z,100.00
2022-10-04T20:52:52.826Z,100.00
2022-10-04T20:55:27.252Z,100.00
2022-10-04T20:58:01.451Z,100.00
2022-10-04T21:00:34.574Z,100.00
2022-10-04T21:03:16.706Z,100.00
2022-10-04T21:05:49.846Z,100.00
2022-10-04T21:08:26.072Z,100.00
2022-10-04T21:11:08.682Z,100.00
2022-10-04T21:13:58.586Z,100.00
2022-10-04T21:16:38.137Z,100.00
2022-10-04T21:19:45.488Z,100.00
2022-10-04T21:22:37.659Z,100.00
2022-10-04T21:25:31.116Z,100.00
2022-10-04T21:28:25.255Z,100.00
2022-10-04T21:30:53.288Z,100.00
2022-10-04T21:33:21.205Z,100.00
2022-10-04T21:35:51.261Z,100.00
2022-10-04T21:38:20.888Z,100.00
2022-10-04T21:40:48.792Z,100.00
2022-10-04T21:43:16.791Z,100.00
2022-10-04T21:45:44.779Z,100.00
2022-10-04T21:48:12.786Z,100.00
2022-10-04T21:50:40.993Z,100.00
2022-10-04T21:53:08.949Z,100.00
2022-10-04T21:55:38.232Z,100.00
2022-10-04T21:58:08.712Z,100.00
2022-10-04T22:00:36.744Z,100.00
2022-10-04T22:03:04.725Z,100.00
2022-10-04T22:05:32.640Z,100.00
2022-10-04T22:08:00.922Z,100.00
2022-10-04T22:10:28.872Z,100.00
2022-10-04T22:12:58.140Z,100.00
2022-10-04T22:15:27.750Z,100.00
2022-10-04T22:17:56.439Z,100.00
2022-10-04T22:20:25.717Z,100.00
2022-10-04T22:22:55.638Z,100.00
2022-10-04T22:25:25.961Z,100.00
2022-10-04T22:27:54.698Z,100.00
2022-10-04T22:30:27.290Z,100.00
2022-10-04T22:32:56.427Z,100.00
2022-10-04T22:35:24.936Z,100.00
2022-10-04T22:37:53.059Z,100.00
2022-10-04T22:40:23.294Z,100.00
2022-10-04T22:42:53.348Z,100.00
2022-10-04T22:45:25.285Z,100.00
2022-10-04T22:47:59.073Z,100.00
2022-10-04T22:50:33.826Z,100.00
2022-10-04T22:53:06.241Z,100.00
2022-10-04T22:55:35.634Z,100.00
2022-10-04T22:58:04.577Z,100.00
2022-10-04T23:00:33.915Z,100.00
2022-10-04T23:03:02.634Z,100.00
2022-10-04T23:05:30.705Z,100.00
2022-10-04T23:07:58.651Z,100.00
2022-10-04T23:10:26.552Z,100.00
2022-10-04T23:12:54.461Z,100.00
2022-10-04T23:15:22.613Z,100.00
2022-10-04T23:17:56.015Z,100.00
2022-10-04T23:20:24.763Z,100.00
2022-10-04T23:22:55.051Z,100.00
2022-10-04T23:25:28.128Z,100.00
2022-10-04T23:27:59.600Z,100.00
2022-10-04T23:30:27.748Z,100.00
2022-10-04T23:33:01.179Z,100.00
2022-10-04T23:35:32.806Z,100.00
2022-10-04T23:38:06.969Z,100.00
2022-10-04T23:40:35.141Z,100.00
2022-10-04T23:43:05.260Z,100.00
2022-10-04T23:45:34.403Z,100.00
2022-10-04T23:48:03.717Z,100.00
2022-10-04T23:50:35.095Z,100.00
2022-10-04T23:53:06.532Z,100.00
2022-10-04T23:55:37.376Z,100.00
2022-10-04T23:58:14.114Z,100.00
